createdAt,value
2022-12-06T00:01:18.211Z,2.60
2022-12-06T00:03:47.454Z,2.65
2022-12-06T00:06:20.166Z,2.10
2022-12-06T00:08:48.023Z,2.10
2022-12-06T00:11:22.706Z,2.47
2022-12-06T00:13:55.663Z,2.75
2022-12-06T00:16:23.719Z,2.50
2022-12-06T00:18:51.868Z,2.33
2022-12-06T00:21:23.242Z,2.67
2022-12-06T00:23:53.451Z,2.35
2022-12-06T00:26:22.171Z,2.50
2022-12-06T00:28:53.112Z,2.38
2022-12-06T00:31:22.897Z,2.20
2022-12-06T00:33:50.834Z,2.15
2022-12-06T00:36:21.054Z,2.40
2022-12-06T00:38:49.816Z,2.88
2022-12-06T00:41:24.722Z,2.00
2022-12-06T00:43:52.842Z,2.42
2022-12-06T00:46:27.217Z,2.10
2022-12-06T00:48:56.033Z,2.30
2022-12-06T00:51:25.629Z,1.98
2022-12-06T00:53:53.060Z,1.88
2022-12-06T00:56:20.712Z,1.90
2022-12-06T00:58:48.159Z,2.28
2022-12-06T01:01:17.385Z,2.10
2022-12-06T01:03:45.942Z,2.67
2022-12-06T01:06:15.593Z,2.35
2022-12-06T01:08:43.811Z,2.53
2022-12-06T01:11:14.486Z,1.90
2022-12-06T01:13:42.581Z,2.45
2022-12-06T01:16:13.621Z,2.10
2022-12-06T01:18:42.445Z,3.03
2022-12-06T01:21:18.348Z,1.95
2022-12-06T01:23:46.940Z,2.22
2022-12-06T01:26:20.314Z,2.42
2022-12-06T01:28:48.403Z,2.72
2022-12-06T01:31:16.614Z,2.67
2022-12-06T01:33:44.687Z,2.55
2022-12-06T01:36:20.021Z,2.42
2022-12-06T01:38:56.416Z,2.22
2022-12-06T01:41:25.837Z,2.30
2022-12-06T01:43:54.220Z,2.80
2022-12-06T01:46:28.084Z,2.67
2022-12-06T01:49:20.860Z,2.88
2022-12-06T01:51:52.317Z,2.60
2022-12-06T01:54:20.995Z,2.72
2022-12-06T01:56:50.612Z,2.80
2022-12-06T02:03:51.689Z,2.70
2022-12-06T02:06:19.073Z,2.83
2022-12-06T02:08:46.937Z,7.50
2022-12-06T02:11:14.434Z,3.63
2022-12-06T02:13:42.081Z,2.67
2022-12-06T02:16:24.733Z,3.88
2022-12-06T02:19:29.683Z,3.05
2022-12-06T02:22:10.936Z,3.90
2022-12-06T02:27:36.332Z,2.97
2022-12-06T02:30:19.046Z,3.85
2022-12-06T02:33:00.367Z,3.90
2022-12-06T02:38:43.524Z,2.97
2022-12-06T02:41:18.912Z,2.50
2022-12-06T02:43:51.493Z,3.05
2022-12-06T02:46:21.662Z,2.92
2022-12-06T02:48:52.685Z,2.90
2022-12-06T02:51:20.991Z,2.65
2022-12-06T02:53:52.868Z,3.08
2022-12-06T02:56:20.416Z,2.67
2022-12-06T02:58:47.894Z,3.00
2022-12-06T03:01:23.952Z,3.08
2022-12-06T03:04:33.277Z,2.95
2022-12-06T03:07:21.816Z,2.88
2022-12-06T03:10:07.130Z,2.63
2022-12-06T03:13:12.457Z,2.83
2022-12-06T03:16:21.004Z,3.40
2022-12-06T03:18:56.120Z,2.35
2022-12-06T03:21:30.755Z,2.92
2022-12-06T03:23:59.304Z,2.40
2022-12-06T03:26:30.810Z,3.47
2022-12-06T03:29:01.629Z,2.55
2022-12-06T03:31:32.528Z,2.78
2022-12-06T03:34:05.098Z,2.50
2022-12-06T03:36:33.157Z,2.50
2022-12-06T03:39:03.770Z,2.40
2022-12-06T03:41:39.469Z,3.20
2022-12-06T03:44:06.914Z,2.45
2022-12-06T03:46:38.709Z,2.05
2022-12-06T03:49:27.633Z,2.63
2022-12-06T03:51:55.527Z,2.63
2022-12-06T03:54:23.076Z,2.15
2022-12-06T03:56:50.475Z,2.72
2022-12-06T03:59:17.867Z,2.30
2022-12-06T04:01:45.365Z,2.78
2022-12-06T04:04:12.955Z,3.55
2022-12-06T04:06:40.373Z,2.45
2022-12-06T04:09:26.150Z,3.33
2022-12-06T04:11:53.516Z,3.22
2022-12-06T04:14:21.264Z,2.05
2022-12-06T04:17:07.295Z,2.33
2022-12-06T04:19:34.659Z,2.03
2022-12-06T04:22:20.637Z,3.10
2022-12-06T04:24:48.006Z,2.58
2022-12-06T04:27:33.738Z,2.65
2022-12-06T04:30:19.625Z,2.50
2022-12-06T04:33:05.515Z,2.00
2022-12-06T04:35:51.392Z,2.60
2022-12-06T04:38:37.102Z,2.70
2022-12-06T04:41:04.612Z,2.47
2022-12-06T04:43:44.191Z,2.63
2022-12-06T04:46:13.591Z,2.28
2022-12-06T04:48:41.832Z,2.25
2022-12-06T04:51:12.958Z,2.30
2022-12-06T04:56:07.725Z,2.88
2022-12-06T04:58:35.352Z,2.20
2022-12-06T05:01:03.090Z,2.50
2022-12-06T05:03:30.526Z,2.30
2022-12-06T05:05:57.961Z,2.53
2022-12-06T05:08:25.339Z,1.95
2022-12-06T05:10:52.843Z,1.80
2022-12-06T05:13:20.569Z,2.42
2022-12-06T05:15:52.993Z,1.90
2022-12-06T05:18:20.893Z,2.13
2022-12-06T05:20:48.315Z,1.95
2022-12-06T05:23:16.314Z,2.13
2022-12-06T05:25:43.893Z,1.92
2022-12-06T05:28:11.340Z,2.58
2022-12-06T05:30:38.738Z,1.77
2022-12-06T05:33:06.158Z,1.75
2022-12-06T05:35:33.516Z,2.58
2022-12-06T05:38:00.907Z,2.35
2022-12-06T05:40:28.273Z,2.22
2022-12-06T05:42:55.682Z,2.00
2022-12-06T05:45:23.775Z,2.10
2022-12-06T05:47:51.192Z,3.00
2022-12-06T05:50:18.572Z,2.25
2022-12-06T05:52:46.147Z,1.90
2022-12-06T05:55:13.515Z,2.03
2022-12-06T05:57:46.897Z,2.15
2022-12-06T06:00:15.637Z,2.72
2022-12-06T06:02:43.272Z,2.15
2022-12-06T06:05:10.813Z,2.13
2022-12-06T06:07:38.257Z,2.00
2022-12-06T06:10:06.665Z,2.15
2022-12-06T06:12:34.010Z,1.80
2022-12-06T06:15:01.484Z,2.40
2022-12-06T06:17:28.833Z,2.45
2022-12-06T06:19:56.254Z,2.58
2022-12-06T06:22:24.548Z,2.00
2022-12-06T06:24:51.876Z,2.10
2022-12-06T06:27:19.255Z,2.38
2022-12-06T06:29:46.617Z,2.22
2022-12-06T06:32:14.286Z,2.28
2022-12-06T06:34:41.743Z,2.13
2022-12-06T06:37:09.177Z,2.20
2022-12-06T06:39:36.819Z,2.05
2022-12-06T06:42:04.436Z,2.08
2022-12-06T06:44:32.844Z,10.20
2022-12-06T06:47:00.252Z,2.20
2022-12-06T06:49:27.716Z,3.20
2022-12-06T06:51:55.162Z,2.10
2022-12-06T06:54:22.776Z,1.60
2022-12-06T06:56:50.225Z,1.60
2022-12-06T06:59:17.727Z,1.80
2022-12-06T07:01:45.277Z,2.13
2022-12-06T07:04:12.641Z,1.88
2022-12-06T07:06:40.083Z,1.73
2022-12-06T07:09:07.406Z,1.40
2022-12-06T07:11:34.758Z,4.82
2022-12-06T07:14:03.095Z,5.30
2022-12-06T07:16:30.959Z,2.33
2022-12-06T07:18:58.500Z,2.40
2022-12-06T07:21:25.878Z,1.98
2022-12-06T07:23:53.254Z,2.05
2022-12-06T07:26:24.342Z,2.13
2022-12-06T07:31:25.164Z,1.80
2022-12-06T07:33:55.187Z,2.35
2022-12-06T07:36:23.372Z,1.77
2022-12-06T07:38:54.306Z,2.63
2022-12-06T07:41:42.397Z,2.13
2022-12-06T07:44:32.896Z,1.60
2022-12-06T07:47:00.487Z,1.93
2022-12-06T07:49:27.959Z,2.38
2022-12-06T07:51:56.265Z,1.90
2022-12-06T07:54:24.640Z,2.13
2022-12-06T07:56:52.284Z,2.03
2022-12-06T07:59:19.646Z,2.25
2022-12-06T08:01:47.205Z,1.38
2022-12-06T08:04:14.796Z,1.80
2022-12-06T08:06:42.225Z,1.60
2022-12-06T08:09:09.749Z,2.08
2022-12-06T08:11:37.148Z,1.88
2022-12-06T08:14:05.065Z,2.10
2022-12-06T08:16:32.648Z,2.10
2022-12-06T08:19:00.918Z,2.30
2022-12-06T08:21:28.634Z,2.00
2022-12-06T08:23:56.414Z,2.13
2022-12-06T08:26:24.369Z,2.33
2022-12-06T08:28:52.065Z,1.75
2022-12-06T08:31:22.619Z,2.22
2022-12-06T08:33:50.283Z,1.80
2022-12-06T08:36:22.002Z,1.80
2022-12-06T08:38:50.037Z,2.05
2022-12-06T08:41:36.216Z,1.80
2022-12-06T08:44:04.636Z,1.73
2022-12-06T08:46:35.393Z,1.65
2022-12-06T08:49:03.556Z,2.03
2022-12-06T08:51:32.828Z,3.97
2022-12-06T08:54:00.332Z,2.00
2022-12-06T08:56:29.831Z,2.85
2022-12-06T08:58:57.503Z,1.80
2022-12-06T09:01:31.218Z,2.53
2022-12-06T09:04:03.019Z,1.60
2022-12-06T09:06:30.649Z,1.75
2022-12-06T09:08:58.530Z,2.72
2022-12-06T09:11:26.944Z,1.73
2022-12-06T09:13:54.433Z,2.15
2022-12-06T09:16:24.251Z,1.50
2022-12-06T09:18:52.000Z,2.00
2022-12-06T09:21:24.627Z,1.92
2022-12-06T09:23:55.569Z,2.28
2022-12-06T09:26:23.966Z,2.28
2022-12-06T09:28:53.434Z,2.15
2022-12-06T09:31:21.015Z,2.28
2022-12-06T09:33:48.904Z,2.10
2022-12-06T09:36:23.568Z,1.80
2022-12-06T09:38:57.051Z,3.15
2022-12-06T09:41:44.800Z,2.22
2022-12-06T09:44:17.976Z,1.98
2022-12-06T09:47:00.126Z,2.53
2022-12-06T09:50:02.205Z,2.40
2022-12-06T09:52:53.936Z,2.22
2022-12-06T09:55:47.212Z,2.63
2022-12-06T09:58:29.512Z,2.80
2022-12-06T10:01:27.400Z,2.53
2022-12-06T10:04:22.530Z,2.22
2022-12-06T10:07:17.368Z,2.45
2022-12-06T10:10:08.746Z,2.30
2022-12-06T10:15:34.272Z,2.75
2022-12-06T10:18:34.249Z,2.60
2022-12-06T10:21:27.266Z,2.38
2022-12-06T10:24:11.776Z,2.55
2022-12-06T10:26:48.068Z,2.30
2022-12-06T10:29:39.012Z,3.20
2022-12-06T10:32:17.898Z,2.70
2022-12-06T10:34:56.062Z,2.90
2022-12-06T10:37:35.159Z,2.78
2022-12-06T10:40:08.573Z,2.45
2022-12-06T10:42:41.869Z,3.30
2022-12-06T10:46:02.088Z,3.42
2022-12-06T10:48:40.765Z,4.28
2022-12-06T10:51:16.937Z,3.65
2022-12-06T10:53:52.889Z,3.17
2022-12-06T10:56:26.554Z,2.80
2022-12-06T10:59:01.206Z,4.80
2022-12-06T11:01:34.395Z,3.17
2022-12-06T11:04:12.797Z,3.03
2022-12-06T11:06:54.891Z,2.38
2022-12-06T11:09:44.811Z,3.00
2022-12-06T11:12:31.206Z,3.53
2022-12-06T11:15:03.151Z,3.40
2022-12-06T11:17:36.703Z,2.60
2022-12-06T11:20:29.653Z,2.35
2022-12-06T11:23:10.150Z,2.90
2022-12-06T11:25:52.739Z,2.07
2022-12-06T11:28:37.997Z,2.58
2022-12-06T11:31:15.628Z,2.30
2022-12-06T11:33:43.556Z,2.28
2022-12-06T11:36:10.987Z,2.45
2022-12-06T11:38:41.770Z,2.03
2022-12-06T11:41:17.592Z,2.03
2022-12-06T11:43:45.743Z,2.08
2022-12-06T11:46:15.173Z,1.90
2022-12-06T11:48:43.138Z,3.15
2022-12-06T11:51:20.341Z,1.80
2022-12-06T11:54:07.724Z,2.40
2022-12-06T11:56:38.979Z,2.55
2022-12-06T11:59:28.480Z,2.67
2022-12-06T12:01:58.778Z,2.45
2022-12-06T12:04:34.905Z,1.52
2022-12-06T12:07:05.397Z,1.65
2022-12-06T12:09:59.442Z,5.18
2022-12-06T12:13:03.770Z,8.48
2022-12-06T12:15:32.716Z,5.05
2022-12-06T12:18:01.870Z,15.48
2022-12-06T12:20:39.568Z,4.78
2022-12-06T12:23:19.515Z,5.70
2022-12-06T12:26:34.763Z,3.60
2022-12-06T12:29:08.168Z,1.77
2022-12-06T12:31:59.678Z,2.35
2022-12-06T12:34:30.045Z,2.00
2022-12-06T12:37:03.642Z,2.33
2022-12-06T12:39:41.126Z,1.67
2022-12-06T12:42:32.942Z,1.30
2022-12-06T12:45:03.309Z,2.33
2022-12-06T12:47:31.907Z,1.27
2022-12-06T12:50:24.048Z,1.63
2022-12-06T12:52:52.473Z,2.15
2022-12-06T12:55:26.340Z,1.98
2022-12-06T12:57:56.761Z,1.80
2022-12-06T13:00:30.865Z,2.38
2022-12-06T13:03:34.441Z,2.15
2022-12-06T13:05:58.630Z,1.88
2022-12-06T13:08:31.637Z,1.60
2022-12-06T13:11:01.888Z,2.08
2022-12-06T13:13:44.517Z,1.97
2022-12-06T13:16:20.437Z,2.08
2022-12-06T13:18:52.677Z,1.85
2022-12-06T13:21:31.837Z,1.92
2022-12-06T13:24:09.599Z,2.30
2022-12-06T13:26:50.892Z,1.95
2022-12-06T13:29:24.468Z,1.77
2022-12-06T13:31:55.754Z,1.40
2022-12-06T13:37:43.423Z,1.13
2022-12-06T13:40:32.682Z,1.00
2022-12-06T13:43:06.403Z,1.67
2022-12-06T13:45:45.666Z,1.60
2022-12-06T13:48:33.474Z,2.13
2022-12-06T13:51:32.846Z,1.42
2022-12-06T13:54:06.078Z,2.00
2022-12-06T13:56:33.499Z,1.33
2022-12-06T13:59:02.401Z,1.50
2022-12-06T14:01:51.770Z,1.88
2022-12-06T14:07:01.129Z,3.75
2022-12-06T14:09:39.162Z,2.22
2022-12-06T14:12:27.674Z,2.17
2022-12-06T14:15:04.921Z,2.00
2022-12-06T14:20:32.042Z,2.28
2022-12-06T14:22:59.835Z,1.70
2022-12-06T14:25:29.752Z,2.03
2022-12-06T14:28:13.386Z,1.90
2022-12-06T14:30:41.972Z,2.97
2022-12-06T14:33:22.196Z,2.30
2022-12-06T14:35:52.386Z,1.90
2022-12-06T14:38:24.039Z,1.40
2022-12-06T14:41:10.885Z,3.03
2022-12-06T14:43:40.100Z,2.20
2022-12-06T14:46:11.915Z,2.78
2022-12-06T14:48:57.690Z,1.85
2022-12-06T14:51:33.473Z,2.22
2022-12-06T14:54:17.325Z,1.65
2022-12-06T14:56:45.109Z,1.50
2022-12-06T14:59:12.829Z,1.35
2022-12-06T15:01:54.313Z,2.17
2022-12-06T15:04:38.339Z,1.50
2022-12-06T15:07:06.164Z,1.50
2022-12-06T15:09:45.283Z,1.10
2022-12-06T15:12:46.021Z,1.80
2022-12-06T15:15:37.555Z,1.60
2022-12-06T15:18:11.679Z,0.85
2022-12-06T15:20:39.623Z,1.63
2022-12-06T15:23:26.009Z,1.80
2022-12-06T15:25:53.540Z,1.63
2022-12-06T15:28:21.706Z,2.28
2022-12-06T15:30:49.986Z,1.52
2022-12-06T15:33:22.975Z,1.52
2022-12-06T15:35:51.136Z,2.10
2022-12-06T15:38:18.913Z,1.20
2022-12-06T15:40:49.626Z,3.30
2022-12-06T15:43:28.984Z,2.63
2022-12-06T15:45:57.943Z,2.42
2022-12-06T15:48:25.330Z,2.35
2022-12-06T15:50:55.133Z,2.15
2022-12-06T15:53:24.313Z,1.50
2022-12-06T15:55:51.856Z,1.70
2022-12-06T15:58:20.415Z,2.08
2022-12-06T16:00:47.775Z,2.33
2022-12-06T16:03:15.212Z,2.47
2022-12-06T16:05:42.687Z,2.33
2022-12-06T16:08:10.493Z,2.08
2022-12-06T16:11:10.161Z,1.77
2022-12-06T16:13:25.426Z,2.10
2022-12-06T16:15:53.221Z,2.67
2022-12-06T16:18:20.805Z,2.30
2022-12-06T16:20:48.230Z,2.30
2022-12-06T16:24:11.281Z,2.42
2022-12-06T16:28:58.990Z,4.13
2022-12-06T16:31:26.998Z,4.20
2022-12-06T16:33:54.838Z,4.80
2022-12-06T16:36:31.490Z,3.88
2022-12-06T16:39:02.070Z,4.45
2022-12-06T16:41:33.289Z,3.70
2022-12-06T16:44:01.711Z,4.32
2022-12-06T16:46:31.583Z,4.18
2022-12-06T16:49:44.291Z,4.65
2022-12-06T16:52:01.610Z,4.82
2022-12-06T16:54:29.017Z,4.80
2022-12-06T16:56:56.377Z,5.18
2022-12-06T16:59:23.704Z,4.90
2022-12-06T17:01:53.553Z,4.72
2022-12-06T17:04:21.890Z,4.70
2022-12-06T17:06:49.391Z,7.10
2022-12-06T17:09:17.074Z,6.47
2022-12-06T17:12:02.843Z,8.63
2022-12-06T17:14:30.618Z,6.68
2022-12-06T17:17:03.415Z,7.18
2022-12-06T17:19:32.104Z,8.13
2022-12-06T17:22:06.123Z,6.35
2022-12-06T17:24:33.681Z,5.40
2022-12-06T17:27:01.411Z,5.90
2022-12-06T17:29:28.927Z,5.55
2022-12-06T17:31:56.587Z,5.57
2022-12-06T17:34:25.730Z,5.68
2022-12-06T17:36:53.794Z,6.13
2022-12-06T17:39:21.220Z,7.60
2022-12-06T17:42:07.198Z,7.20
2022-12-06T17:44:34.945Z,6.22
2022-12-06T17:47:02.937Z,6.32
2022-12-06T17:49:30.396Z,5.80
2022-12-06T17:51:57.821Z,6.10
2022-12-06T17:54:25.408Z,6.53
2022-12-06T17:56:53.865Z,6.03
2022-12-06T17:59:24.653Z,6.10
2022-12-06T18:04:41.923Z,6.68
2022-12-06T18:07:09.881Z,6.80
2022-12-06T18:09:37.272Z,10.50
2022-12-06T18:12:04.883Z,7.72
2022-12-06T18:14:32.322Z,8.50
2022-12-06T18:16:59.832Z,8.02
2022-12-06T18:19:27.288Z,8.02
2022-12-06T18:21:54.955Z,7.53
2022-12-06T18:24:25.635Z,8.05
2022-12-06T18:26:55.279Z,8.45
2022-12-06T18:29:23.826Z,9.40
2022-12-06T18:31:52.215Z,8.75
2022-12-06T18:34:20.547Z,10.13
2022-12-06T18:36:47.976Z,9.13
2022-12-06T18:39:17.923Z,9.68
2022-12-06T18:41:45.298Z,11.00
2022-12-06T18:44:13.583Z,8.93
2022-12-06T18:46:44.382Z,8.80
2022-12-06T18:49:12.684Z,29.20
2022-12-06T18:51:40.549Z,41.28
2022-12-06T18:54:08.684Z,24.38
2022-12-06T18:56:36.610Z,14.27
2022-12-06T18:59:07.245Z,11.88
2022-12-06T19:01:38.892Z,10.65
2022-12-06T19:04:08.626Z,10.93
2022-12-06T19:06:38.048Z,12.40
2022-12-06T19:09:11.585Z,13.02
2022-12-06T19:11:41.119Z,11.60
2022-12-06T19:14:10.115Z,10.40
2022-12-06T19:16:43.908Z,14.27
2022-12-06T19:19:19.954Z,15.60
2022-12-06T19:21:48.917Z,10.65
2022-12-06T19:24:20.261Z,11.25
2022-12-06T19:26:49.043Z,9.88
2022-12-06T19:33:16.226Z,10.38
2022-12-06T19:35:43.600Z,9.63
2022-12-06T19:38:10.986Z,10.20
2022-12-06T19:40:41.436Z,10.68
2022-12-06T19:43:37.448Z,9.57
2022-12-06T19:46:16.068Z,9.70
2022-12-06T19:48:44.063Z,8.65
2022-12-06T19:51:11.517Z,9.35
2022-12-06T19:53:41.358Z,9.38
2022-12-06T19:56:11.905Z,9.93
2022-12-06T19:58:39.884Z,9.90
2022-12-06T20:01:13.561Z,10.95
2022-12-06T20:03:43.219Z,10.95
2022-12-06T20:06:18.330Z,13.73
2022-12-06T20:08:46.682Z,15.23
2022-12-06T20:11:42.647Z,10.77
2022-12-06T20:14:12.668Z,10.02
2022-12-06T20:16:40.362Z,9.45
2022-12-06T20:19:08.193Z,9.93
2022-12-06T20:21:36.167Z,10.25
2022-12-06T20:24:04.062Z,9.23
2022-12-06T20:26:32.959Z,10.68
2022-12-06T20:29:00.950Z,9.63
2022-12-06T20:31:29.870Z,10.00
2022-12-06T20:33:59.154Z,9.35
2022-12-06T20:36:28.098Z,9.18
2022-12-06T20:38:56.576Z,9.35
2022-12-06T20:41:26.510Z,9.65
2022-12-06T20:43:54.031Z,8.65
2022-12-06T20:46:24.986Z,9.13
2022-12-06T20:48:53.616Z,9.57
2022-12-06T20:51:24.143Z,10.25
2022-12-06T20:53:54.057Z,9.85
2022-12-06T20:56:23.384Z,9.48
2022-12-06T20:58:53.100Z,8.85
2022-12-06T21:01:23.610Z,9.52
2022-12-06T21:03:52.274Z,9.43
2022-12-06T21:06:20.880Z,8.25
2022-12-06T21:08:48.949Z,9.07
2022-12-06T21:11:23.388Z,8.95
2022-12-06T21:13:53.506Z,8.68
2022-12-06T21:16:24.212Z,8.40
2022-12-06T21:19:03.858Z,8.50
2022-12-06T21:21:36.789Z,9.57
2022-12-06T21:24:07.433Z,8.65
2022-12-06T21:26:35.428Z,10.77
2022-12-06T21:29:03.478Z,11.07
2022-12-06T21:31:33.546Z,9.77
2022-12-06T21:34:01.380Z,10.50
2022-12-06T21:36:29.085Z,10.75
2022-12-06T21:38:57.466Z,11.70
2022-12-06T21:41:25.704Z,8.73
2022-12-06T21:43:53.476Z,8.85
2022-12-06T21:46:24.300Z,8.82
2022-12-06T21:48:57.066Z,9.37
2022-12-06T21:51:27.561Z,9.38
2022-12-06T21:53:55.674Z,8.05
2022-12-06T21:56:25.361Z,9.23
2022-12-06T21:58:52.981Z,9.70
2022-12-06T22:01:24.063Z,9.50
2022-12-06T22:06:20.282Z,8.60
2022-12-06T22:08:48.719Z,9.57
2022-12-06T22:11:20.121Z,9.73
2022-12-06T22:13:48.196Z,9.05
2022-12-06T22:16:16.472Z,8.70
2022-12-06T22:18:45.872Z,8.95
2022-12-06T22:21:19.957Z,8.65
2022-12-06T22:23:48.240Z,9.70
2022-12-06T22:26:18.321Z,9.57
2022-12-06T22:28:45.965Z,8.38
2022-12-06T22:31:14.684Z,9.35
2022-12-06T22:33:42.909Z,9.55
2022-12-06T22:36:11.142Z,9.90
2022-12-06T22:38:38.603Z,8.75
2022-12-06T22:41:06.746Z,8.98
2022-12-06T22:43:34.864Z,9.38
2022-12-06T22:46:11.049Z,9.45
2022-12-06T22:48:40.151Z,9.20
2022-12-06T22:51:31.809Z,9.23
2022-12-06T22:54:07.479Z,8.95
2022-12-06T22:56:35.022Z,10.00
2022-12-06T22:59:03.092Z,10.70
2022-12-06T23:01:33.098Z,8.80
2022-12-06T23:04:04.674Z,8.80
2022-12-06T23:06:33.421Z,9.13
2022-12-06T23:09:00.978Z,9.52
2022-12-06T23:11:31.069Z,9.52
2022-12-06T23:13:59.132Z,9.63
2022-12-06T23:16:28.816Z,8.65
2022-12-06T23:18:57.211Z,8.45
2022-12-06T23:21:27.092Z,7.28
2022-12-06T23:24:01.708Z,7.53
2022-12-06T23:26:44.716Z,7.35
2022-12-06T23:29:13.207Z,7.40
2022-12-06T23:31:43.685Z,7.50
2022-12-06T23:34:16.230Z,7.57
2022-12-06T23:36:43.835Z,6.82
2022-12-06T23:39:12.277Z,6.80
2022-12-06T23:41:39.922Z,7.28
2022-12-06T23:44:07.874Z,6.72
2022-12-06T23:46:37.074Z,7.25
2022-12-06T23:49:06.193Z,6.88
2022-12-06T23:51:36.084Z,7.07
2022-12-06T23:54:05.765Z,5.95
2022-12-06T23:56:36.257Z,5.68
2022-12-06T23:59:05.088Z,7.03
